sensor_id;sensor_type;location;lat;lon;timestamp;temperature;humidity
2439;DHT22;14509;47.992;7.848;2023-12-22T00:01:34;13.60;67.80
2439;DHT22;14509;47.992;7.848;2023-12-22T00:03:36;13.60;67.70
2439;DHT22;14509;47.992;7.848;2023-12-22T00:05:38;13.60;67.50
2439;DHT22;14509;47.992;7.848;2023-12-22T00:07:40;13.60;67.40
2439;DHT22;14509;47.992;7.848;2023-12-22T00:09:42;13.60;67.20
2439;DHT22;14509;47.992;7.848;2023-12-22T00:11:44;13.60;67.30
2439;DHT22;14509;47.992;7.848;2023-12-22T00:13:45;14.10;67.90
2439;DHT22;14509;47.992;7.848;2023-12-22T00:15:48;13.60;67.30
2439;DHT22;14509;47.992;7.848;2023-12-22T00:17:50;13.60;67.20
2439;DHT22;14509;47.992;7.848;2023-12-22T00:19:51;13.50;66.90
2439;DHT22;14509;47.992;7.848;2023-12-22T00:21:53;13.50;67.00
2439;DHT22;14509;47.992;7.848;2023-12-22T00:23:55;13.50;67.00
2439;DHT22;14509;47.992;7.848;2023-12-22T00:25:57;13.50;67.20
2439;DHT22;14509;47.992;7.848;2023-12-22T00:27:59;13.50;66.80
2439;DHT22;14509;47.992;7.848;2023-12-22T00:30:01;13.80;67.50
2439;DHT22;14509;47.992;7.848;2023-12-22T00:32:05;14.00;67.10
2439;DHT22;14509;47.992;7.848;2023-12-22T00:34:07;13.40;67.10
2439;DHT22;14509;47.992;7.848;2023-12-22T00:36:09;13.40;66.80
2439;DHT22;14509;47.992;7.848;2023-12-22T00:38:10;14.20;66.20
2439;DHT22;14509;47.992;7.848;2023-12-22T00:40:12;13.40;65.70
2439;DHT22;14509;47.992;7.848;2023-12-22T00:42:13;13.40;66.40
2439;DHT22;14509;47.992;7.848;2023-12-22T00:44:15;13.40;66.30
2439;DHT22;14509;47.992;7.848;2023-12-22T00:46:17;13.50;66.20
2439;DHT22;14509;47.992;7.848;2023-12-22T00:48:21;13.50;65.70
2439;DHT22;14509;47.992;7.848;2023-12-22T00:50:23;13.50;65.80
2439;DHT22;14509;47.992;7.848;2023-12-22T00:52:25;13.60;65.80
2439;DHT22;14509;47.992;7.848;2023-12-22T00:54:27;13.80;65.60
2439;DHT22;14509;47.992;7.848;2023-12-22T00:56:30;13.70;65.10
2439;DHT22;14509;47.992;7.848;2023-12-22T00:58:32;13.60;64.70
2439;DHT22;14509;47.992;7.848;2023-12-22T01:00:33;13.60;64.50
2439;DHT22;14509;47.992;7.848;2023-12-22T01:02:35;13.50;64.40
2439;DHT22;14509;47.992;7.848;2023-12-22T01:04:38;13.40;64.20
2439;DHT22;14509;47.992;7.848;2023-12-22T01:06:40;13.80;65.10
2439;DHT22;14509;47.992;7.848;2023-12-22T01:08:41;13.10;64.80
2439;DHT22;14509;47.992;7.848;2023-12-22T01:10:43;13.00;64.70
2439;DHT22;14509;47.992;7.848;2023-12-22T01:12:44;13.00;65.20
2439;DHT22;14509;47.992;7.848;2023-12-22T01:14:46;13.00;64.70
2439;DHT22;14509;47.992;7.848;2023-12-22T01:16:51;13.30;65.60
2439;DHT22;14509;47.992;7.848;2023-12-22T01:18:52;13.00;65.60
2439;DHT22;14509;47.992;7.848;2023-12-22T01:20:55;13.00;65.60
2439;DHT22;14509;47.992;7.848;2023-12-22T01:22:57;13.10;65.70
2439;DHT22;14509;47.992;7.848;2023-12-22T01:24:59;14.20;66.60
2439;DHT22;14509;47.992;7.848;2023-12-22T01:27:02;13.90;66.30
2439;DHT22;14509;47.992;7.848;2023-12-22T01:29:04;13.10;64.70
2439;DHT22;14509;47.992;7.848;2023-12-22T01:31:06;14.50;66.50
2439;DHT22;14509;47.992;7.848;2023-12-22T01:33:08;13.10;65.30
2439;DHT22;14509;47.992;7.848;2023-12-22T01:35:10;13.10;65.40
2439;DHT22;14509;47.992;7.848;2023-12-22T01:37:12;13.40;65.70
2439;DHT22;14509;47.992;7.848;2023-12-22T01:39:14;13.20;65.40
2439;DHT22;14509;47.992;7.848;2023-12-22T01:41:16;13.10;65.10
2439;DHT22;14509;47.992;7.848;2023-12-22T01:43:18;13.70;65.80
2439;DHT22;14509;47.992;7.848;2023-12-22T01:45:22;13.20;65.40
2439;DHT22;14509;47.992;7.848;2023-12-22T01:47:23;13.30;65.60
2439;DHT22;14509;47.992;7.848;2023-12-22T01:49:25;13.20;65.80
2439;DHT22;14509;47.992;7.848;2023-12-22T01:51:27;13.30;65.90
2439;DHT22;14509;47.992;7.848;2023-12-22T01:53:31;13.40;66.10
2439;DHT22;14509;47.992;7.848;2023-12-22T01:55:34;13.30;65.50
2439;DHT22;14509;47.992;7.848;2023-12-22T01:57:35;13.30;65.70
2439;DHT22;14509;47.992;7.848;2023-12-22T01:59:37;13.70;65.80
2439;DHT22;14509;47.992;7.848;2023-12-22T02:01:39;13.10;65.00
2439;DHT22;14509;47.992;7.848;2023-12-22T02:03:41;13.10;65.00
2439;DHT22;14509;47.992;7.848;2023-12-22T02:05:43;13.00;65.30
2439;DHT22;14509;47.992;7.848;2023-12-22T02:07:45;13.00;65.50
2439;DHT22;14509;47.992;7.848;2023-12-22T02:09:49;13.10;65.80
2439;DHT22;14509;47.992;7.848;2023-12-22T02:11:50;13.20;65.90
2439;DHT22;14509;47.992;7.848;2023-12-22T02:13:52;13.10;65.80
2439;DHT22;14509;47.992;7.848;2023-12-22T02:16:00;13.00;65.40
2439;DHT22;14509;47.992;7.848;2023-12-22T02:18:06;13.10;65.60
2439;DHT22;14509;47.992;7.848;2023-12-22T02:20:09;13.00;65.00
2439;DHT22;14509;47.992;7.848;2023-12-22T02:22:11;13.00;65.30
2439;DHT22;14509;47.992;7.848;2023-12-22T02:24:15;13.80;66.20
2439;DHT22;14509;47.992;7.848;2023-12-22T02:26:22;12.90;65.50
2439;DHT22;14509;47.992;7.848;2023-12-22T02:28:26;12.90;65.60
2439;DHT22;14509;47.992;7.848;2023-12-22T02:30:32;12.90;65.90
2439;DHT22;14509;47.992;7.848;2023-12-22T02:32:38;13.10;66.40
2439;DHT22;14509;47.992;7.848;2023-12-22T02:34:42;12.90;66.40
2439;DHT22;14509;47.992;7.848;2023-12-22T02:36:44;12.90;66.40
2439;DHT22;14509;47.992;7.848;2023-12-22T02:38:48;12.90;66.40
2439;DHT22;14509;47.992;7.848;2023-12-22T02:40:52;12.80;66.10
2439;DHT22;14509;47.992;7.848;2023-12-22T02:42:54;12.80;66.00
2439;DHT22;14509;47.992;7.848;2023-12-22T02:44:56;12.80;65.80
2439;DHT22;14509;47.992;7.848;2023-12-22T02:46:57;12.80;66.00
2439;DHT22;14509;47.992;7.848;2023-12-22T02:48:59;13.30;66.50
2439;DHT22;14509;47.992;7.848;2023-12-22T02:51:01;13.80;66.90
2439;DHT22;14509;47.992;7.848;2023-12-22T02:53:03;12.80;65.90
2439;DHT22;14509;47.992;7.848;2023-12-22T02:55:05;12.90;65.90
2439;DHT22;14509;47.992;7.848;2023-12-22T02:57:08;12.90;65.70
2439;DHT22;14509;47.992;7.848;2023-12-22T02:59:10;12.90;65.60
2439;DHT22;14509;47.992;7.848;2023-12-22T03:01:11;13.00;65.50
2439;DHT22;14509;47.992;7.848;2023-12-22T03:03:13;13.10;65.40
2439;DHT22;14509;47.992;7.848;2023-12-22T03:05:14;13.00;65.40
2439;DHT22;14509;47.992;7.848;2023-12-22T03:07:16;13.00;65.40
2439;DHT22;14509;47.992;7.848;2023-12-22T03:09:18;13.10;65.40
2439;DHT22;14509;47.992;7.848;2023-12-22T03:11:19;12.90;65.10
2439;DHT22;14509;47.992;7.848;2023-12-22T03:13:24;14.80;67.20
2439;DHT22;14509;47.992;7.848;2023-12-22T03:15:26;14.30;66.60
2439;DHT22;14509;47.992;7.848;2023-12-22T03:17:28;13.90;66.10
2439;DHT22;14509;47.992;7.848;2023-12-22T03:19:30;13.50;65.50
2439;DHT22;14509;47.992;7.848;2023-12-22T03:21:32;13.30;65.30
2439;DHT22;14509;47.992;7.848;2023-12-22T03:23:34;13.30;65.10
2439;DHT22;14509;47.992;7.848;2023-12-22T03:25:35;14.00;65.70
2439;DHT22;14509;47.992;7.848;2023-12-22T03:27:37;13.30;64.60
2439;DHT22;14509;47.992;7.848;2023-12-22T03:29:40;13.40;64.60
2439;DHT22;14509;47.992;7.848;2023-12-22T03:31:41;13.40;64.40
2439;DHT22;14509;47.992;7.848;2023-12-22T03:33:43;13.30;64.10
2439;DHT22;14509;47.992;7.848;2023-12-22T03:35:44;13.30;64.30
2439;DHT22;14509;47.992;7.848;2023-12-22T03:37:46;13.20;64.40
2439;DHT22;14509;47.992;7.848;2023-12-22T03:39:48;13.50;64.80
2439;DHT22;14509;47.992;7.848;2023-12-22T03:41:50;13.20;64.50
2439;DHT22;14509;47.992;7.848;2023-12-22T03:43:52;13.20;64.00
2439;DHT22;14509;47.992;7.848;2023-12-22T03:45:55;13.30;64.30
2439;DHT22;14509;47.992;7.848;2023-12-22T03:47:57;13.30;64.30
2439;DHT22;14509;47.992;7.848;2023-12-22T03:49:59;13.30;64.10
2439;DHT22;14509;47.992;7.848;2023-12-22T03:52:01;13.10;64.20
2439;DHT22;14509;47.992;7.848;2023-12-22T03:54:02;13.10;64.40
2439;DHT22;14509;47.992;7.848;2023-12-22T03:56:04;13.10;64.70
2439;DHT22;14509;47.992;7.848;2023-12-22T03:58:06;13.10;64.30
2439;DHT22;14509;47.992;7.848;2023-12-22T04:00:09;13.10;64.50
2439;DHT22;14509;47.992;7.848;2023-12-22T04:02:13;13.10;64.70
2439;DHT22;14509;47.992;7.848;2023-12-22T04:04:15;13.00;63.50
2439;DHT22;14509;47.992;7.848;2023-12-22T04:06:16;13.00;63.80
2439;DHT22;14509;47.992;7.848;2023-12-22T04:08:18;12.90;64.20
2439;DHT22;14509;47.992;7.848;2023-12-22T04:10:21;13.00;64.10
2439;DHT22;14509;47.992;7.848;2023-12-22T04:12:22;12.90;63.60
2439;DHT22;14509;47.992;7.848;2023-12-22T04:14:24;12.90;63.90
2439;DHT22;14509;47.992;7.848;2023-12-22T04:16:26;13.30;64.20
2439;DHT22;14509;47.992;7.848;2023-12-22T04:18:29;13.00;64.00
2439;DHT22;14509;47.992;7.848;2023-12-22T04:20:31;12.80;63.00
2439;DHT22;14509;47.992;7.848;2023-12-22T04:22:33;12.80;63.00
2439;DHT22;14509;47.992;7.848;2023-12-22T04:24:35;13.00;63.90
2439;DHT22;14509;47.992;7.848;2023-12-22T04:26:36;12.80;63.70
2439;DHT22;14509;47.992;7.848;2023-12-22T04:28:38;12.70;63.40
2439;DHT22;14509;47.992;7.848;2023-12-22T04:30:39;12.80;63.40
2439;DHT22;14509;47.992;7.848;2023-12-22T04:32:41;12.80;63.50
2439;DHT22;14509;47.992;7.848;2023-12-22T04:34:43;12.80;63.70
2439;DHT22;14509;47.992;7.848;2023-12-22T04:36:45;12.80;63.60
2439;DHT22;14509;47.992;7.848;2023-12-22T04:38:48;12.80;63.60
2439;DHT22;14509;47.992;7.848;2023-12-22T04:40:50;12.80;63.70
2439;DHT22;14509;47.992;7.848;2023-12-22T04:42:52;12.80;64.20
2439;DHT22;14509;47.992;7.848;2023-12-22T04:44:54;12.80;63.50
2439;DHT22;14509;47.992;7.848;2023-12-22T04:46:56;12.80;63.70
2439;DHT22;14509;47.992;7.848;2023-12-22T04:48:58;12.80;63.90
2439;DHT22;14509;47.992;7.848;2023-12-22T04:51:02;12.70;63.70
2439;DHT22;14509;47.992;7.848;2023-12-22T04:53:04;12.70;63.80
2439;DHT22;14509;47.992;7.848;2023-12-22T04:55:05;12.70;63.90
2439;DHT22;14509;47.992;7.848;2023-12-22T04:57:07;12.70;63.70
2439;DHT22;14509;47.992;7.848;2023-12-22T04:59:09;13.90;65.20
2439;DHT22;14509;47.992;7.848;2023-12-22T05:01:11;13.80;64.30
2439;DHT22;14509;47.992;7.848;2023-12-22T05:03:13;12.20;63.40
2439;DHT22;14509;47.992;7.848;2023-12-22T05:05:14;12.60;64.00
2439;DHT22;14509;47.992;7.848;2023-12-22T05:07:18;12.60;64.20
2439;DHT22;14509;47.992;7.848;2023-12-22T05:09:20;12.70;64.20
2439;DHT22;14509;47.992;7.848;2023-12-22T05:11:21;12.60;64.10
2439;DHT22;14509;47.992;7.848;2023-12-22T05:13:23;12.60;63.10
2439;DHT22;14509;47.992;7.848;2023-12-22T05:15:25;12.60;63.00
2439;DHT22;14509;47.992;7.848;2023-12-22T05:17:27;12.40;62.10
2439;DHT22;14509;47.992;7.848;2023-12-22T05:19:29;12.40;62.70
2439;DHT22;14509;47.992;7.848;2023-12-22T05:21:31;12.30;63.40
2439;DHT22;14509;47.992;7.848;2023-12-22T05:23:34;12.30;64.10
2439;DHT22;14509;47.992;7.848;2023-12-22T05:25:36;12.60;63.70
2439;DHT22;14509;47.992;7.848;2023-12-22T05:27:38;13.60;64.60
2439;DHT22;14509;47.992;7.848;2023-12-22T05:29:42;12.40;63.20
2439;DHT22;14509;47.992;7.848;2023-12-22T05:31:44;12.40;63.30
2439;DHT22;14509;47.992;7.848;2023-12-22T05:33:46;12.40;62.70
2439;DHT22;14509;47.992;7.848;2023-12-22T05:35:47;13.30;64.50
2439;DHT22;14509;47.992;7.848;2023-12-22T05:37:49;14.00;65.20
2439;DHT22;14509;47.992;7.848;2023-12-22T05:39:52;12.30;63.90
2439;DHT22;14509;47.992;7.848;2023-12-22T05:41:54;12.20;65.00
2439;DHT22;14509;47.992;7.848;2023-12-22T05:43:56;12.20;64.70
2439;DHT22;14509;47.992;7.848;2023-12-22T05:45:57;12.20;64.40
2439;DHT22;14509;47.992;7.848;2023-12-22T05:47:59;12.10;64.20
2439;DHT22;14509;47.992;7.848;2023-12-22T05:50:00;12.20;64.60
2439;DHT22;14509;47.992;7.848;2023-12-22T05:52:02;12.30;64.90
2439;DHT22;14509;47.992;7.848;2023-12-22T05:54:05;12.40;64.40
2439;DHT22;14509;47.992;7.848;2023-12-22T05:56:18;12.40;63.90
2439;DHT22;14509;47.992;7.848;2023-12-22T05:58:20;11.80;63.60
2439;DHT22;14509;47.992;7.848;2023-12-22T06:00:22;12.40;64.10
2439;DHT22;14509;47.992;7.848;2023-12-22T06:02:25;12.40;64.50
2439;DHT22;14509;47.992;7.848;2023-12-22T06:04:26;12.40;64.60
2439;DHT22;14509;47.992;7.848;2023-12-22T06:06:28;12.30;65.20
2439;DHT22;14509;47.992;7.848;2023-12-22T06:08:31;12.50;65.20
2439;DHT22;14509;47.992;7.848;2023-12-22T06:10:32;12.50;65.50
2439;DHT22;14509;47.992;7.848;2023-12-22T06:12:35;12.30;64.50
2439;DHT22;14509;47.992;7.848;2023-12-22T06:14:36;12.40;64.70
2439;DHT22;14509;47.992;7.848;2023-12-22T06:16:38;12.50;64.70
2439;DHT22;14509;47.992;7.848;2023-12-22T06:18:41;12.50;64.30
2439;DHT22;14509;47.992;7.848;2023-12-22T06:20:43;12.50;64.50
2439;DHT22;14509;47.992;7.848;2023-12-22T06:22:45;13.40;65.50
2439;DHT22;14509;47.992;7.848;2023-12-22T06:24:47;12.50;64.00
2439;DHT22;14509;47.992;7.848;2023-12-22T06:26:48;12.50;64.40
2439;DHT22;14509;47.992;7.848;2023-12-22T06:28:52;13.60;65.10
2439;DHT22;14509;47.992;7.848;2023-12-22T06:30:54;12.50;63.90
2439;DHT22;14509;47.992;7.848;2023-12-22T06:32:56;12.60;64.00
2439;DHT22;14509;47.992;7.848;2023-12-22T06:34:57;12.60;64.00
2439;DHT22;14509;47.992;7.848;2023-12-22T06:37:01;12.70;63.50
2439;DHT22;14509;47.992;7.848;2023-12-22T06:39:03;12.70;64.00
2439;DHT22;14509;47.992;7.848;2023-12-22T06:41:05;12.70;63.90
2439;DHT22;14509;47.992;7.848;2023-12-22T06:43:07;12.70;63.10
2439;DHT22;14509;47.992;7.848;2023-12-22T06:45:11;12.70;63.50
2439;DHT22;14509;47.992;7.848;2023-12-22T06:47:13;12.70;63.50
2439;DHT22;14509;47.992;7.848;2023-12-22T06:49:15;12.70;63.00
2439;DHT22;14509;47.992;7.848;2023-12-22T06:51:18;12.70;63.50
2439;DHT22;14509;47.992;7.848;2023-12-22T06:53:20;12.70;62.30
2439;DHT22;14509;47.992;7.848;2023-12-22T06:55:22;12.70;63.40
2439;DHT22;14509;47.992;7.848;2023-12-22T06:57:24;12.70;62.70
2439;DHT22;14509;47.992;7.848;2023-12-22T06:59:26;12.70;62.70
2439;DHT22;14509;47.992;7.848;2023-12-22T07:01:30;12.70;62.60
2439;DHT22;14509;47.992;7.848;2023-12-22T07:03:33;13.10;62.20
2439;DHT22;14509;47.992;7.848;2023-12-22T07:05:35;12.70;62.90
2439;DHT22;14509;47.992;7.848;2023-12-22T07:07:38;12.70;62.80
2439;DHT22;14509;47.992;7.848;2023-12-22T07:09:40;12.70;62.60
2439;DHT22;14509;47.992;7.848;2023-12-22T07:11:44;12.70;63.20
2439;DHT22;14509;47.992;7.848;2023-12-22T07:13:46;12.70;63.70
2439;DHT22;14509;47.992;7.848;2023-12-22T07:15:48;12.80;63.40
2439;DHT22;14509;47.992;7.848;2023-12-22T07:17:51;12.90;62.50
2439;DHT22;14509;47.992;7.848;2023-12-22T07:19:53;12.90;62.10
2439;DHT22;14509;47.992;7.848;2023-12-22T07:21:58;12.90;61.90
2439;DHT22;14509;47.992;7.848;2023-12-22T07:24:00;13.00;62.00
2439;DHT22;14509;47.992;7.848;2023-12-22T07:26:01;13.00;61.60
2439;DHT22;14509;47.992;7.848;2023-12-22T09:14:54;12.60;63.00
2439;DHT22;14509;47.992;7.848;2023-12-22T09:16:59;12.60;62.40
2439;DHT22;14509;47.992;7.848;2023-12-22T09:19:01;14.30;64.70
2439;DHT22;14509;47.992;7.848;2023-12-22T09:21:02;12.80;62.40
2439;DHT22;14509;47.992;7.848;2023-12-22T09:23:04;12.40;61.50
2439;DHT22;14509;47.992;7.848;2023-12-22T09:25:08;12.90;62.10
2439;DHT22;14509;47.992;7.848;2023-12-22T09:27:09;13.60;61.90
2439;DHT22;14509;47.992;7.848;2023-12-22T09:29:11;13.80;62.60
2439;DHT22;14509;47.992;7.848;2023-12-22T09:31:15;13.10;62.00
2439;DHT22;14509;47.992;7.848;2023-12-22T09:33:17;14.60;62.20
2439;DHT22;14509;47.992;7.848;2023-12-22T09:35:19;13.30;60.70
2439;DHT22;14509;47.992;7.848;2023-12-22T09:37:20;14.00;61.50
2439;DHT22;14509;47.992;7.848;2023-12-22T09:39:22;13.50;61.00
2439;DHT22;14509;47.992;7.848;2023-12-22T09:41:25;14.20;61.00
2439;DHT22;14509;47.992;7.848;2023-12-22T09:43:27;13.90;61.10
2439;DHT22;14509;47.992;7.848;2023-12-22T09:45:30;13.90;62.80
2439;DHT22;14509;47.992;7.848;2023-12-22T09:47:35;13.40;60.90
2439;DHT22;14509;47.992;7.848;2023-12-22T09:49:37;13.40;60.30
2439;DHT22;14509;47.992;7.848;2023-12-22T09:51:41;14.10;60.00
2439;DHT22;14509;47.992;7.848;2023-12-22T09:53:44;13.40;60.00
2439;DHT22;14509;47.992;7.848;2023-12-22T09:55:48;13.40;61.90
2439;DHT22;14509;47.992;7.848;2023-12-22T09:57:51;13.30;58.50
2439;DHT22;14509;47.992;7.848;2023-12-22T09:59:53;13.30;60.20
2439;DHT22;14509;47.992;7.848;2023-12-22T10:01:56;14.90;61.90
2439;DHT22;14509;47.992;7.848;2023-12-22T10:03:59;13.70;60.50
2439;DHT22;14509;47.992;7.848;2023-12-22T10:06:02;13.30;61.50
2439;DHT22;14509;47.992;7.848;2023-12-22T10:08:06;13.30;61.30
2439;DHT22;14509;47.992;7.848;2023-12-22T10:10:09;13.30;59.90
2439;DHT22;14509;47.992;7.848;2023-12-22T10:12:13;13.20;60.60
2439;DHT22;14509;47.992;7.848;2023-12-22T10:14:16;13.90;62.30
2439;DHT22;14509;47.992;7.848;2023-12-22T10:16:23;13.70;63.30
2439;DHT22;14509;47.992;7.848;2023-12-22T10:18:25;14.10;63.70
2439;DHT22;14509;47.992;7.848;2023-12-22T10:20:27;13.00;61.50
2439;DHT22;14509;47.992;7.848;2023-12-22T10:22:29;12.90;60.80
2439;DHT22;14509;47.992;7.848;2023-12-22T10:24:39;13.00;62.10
2439;DHT22;14509;47.992;7.848;2023-12-22T10:26:42;13.00;62.90
2439;DHT22;14509;47.992;7.848;2023-12-22T10:28:43;13.90;64.50
2439;DHT22;14509;47.992;7.848;2023-12-22T10:30:48;13.10;62.50
2439;DHT22;14509;47.992;7.848;2023-12-22T10:32:51;13.50;63.10
2439;DHT22;14509;47.992;7.848;2023-12-22T10:34:54;13.30;63.10
2439;DHT22;14509;47.992;7.848;2023-12-22T10:36:59;13.30;63.30
2439;DHT22;14509;47.992;7.848;2023-12-22T10:39:01;13.30;62.50
2439;DHT22;14509;47.992;7.848;2023-12-22T10:41:04;13.70;63.40
2439;DHT22;14509;47.992;7.848;2023-12-22T10:43:05;13.50;63.50
2439;DHT22;14509;47.992;7.848;2023-12-22T10:45:08;13.60;62.50
2439;DHT22;14509;47.992;7.848;2023-12-22T10:47:10;13.50;62.60
2439;DHT22;14509;47.992;7.848;2023-12-22T10:49:13;15.30;63.50
2439;DHT22;14509;47.992;7.848;2023-12-22T10:51:15;13.50;62.10
2439;DHT22;14509;47.992;7.848;2023-12-22T10:53:20;13.90;62.30
2439;DHT22;14509;47.992;7.848;2023-12-22T10:55:25;13.20;62.30
2439;DHT22;14509;47.992;7.848;2023-12-22T10:57:27;13.00;62.30
2439;DHT22;14509;47.992;7.848;2023-12-22T10:59:30;13.00;63.90
2439;DHT22;14509;47.992;7.848;2023-12-22T11:01:32;14.00;65.00
2439;DHT22;14509;47.992;7.848;2023-12-22T11:03:36;12.80;65.00
2439;DHT22;14509;47.992;7.848;2023-12-22T11:05:44;13.40;64.70
2439;DHT22;14509;47.992;7.848;2023-12-22T11:07:48;14.40;66.40
2439;DHT22;14509;47.992;7.848;2023-12-22T11:09:55;14.60;67.10
2439;DHT22;14509;47.992;7.848;2023-12-22T11:11:58;13.00;64.30
2439;DHT22;14509;47.992;7.848;2023-12-22T11:14:03;12.90;64.60
2439;DHT22;14509;47.992;7.848;2023-12-22T11:16:06;12.90;65.70
2439;DHT22;14509;47.992;7.848;2023-12-22T11:18:09;12.80;65.10
2439;DHT22;14509;47.992;7.848;2023-12-22T11:20:13;12.80;65.60
2439;DHT22;14509;47.992;7.848;2023-12-22T11:22:16;13.10;66.30
2439;DHT22;14509;47.992;7.848;2023-12-22T11:24:19;13.00;66.40
2439;DHT22;14509;47.992;7.848;2023-12-22T11:26:24;13.10;66.10
2439;DHT22;14509;47.992;7.848;2023-12-22T11:28:26;12.80;65.40
2439;DHT22;14509;47.992;7.848;2023-12-22T11:30:29;12.70;65.70
2439;DHT22;14509;47.992;7.848;2023-12-22T11:32:33;13.60;67.50
2439;DHT22;14509;47.992;7.848;2023-12-22T11:34:36;13.70;67.60
2439;DHT22;14509;47.992;7.848;2023-12-22T11:36:40;14.30;69.20
2439;DHT22;14509;47.992;7.848;2023-12-22T11:38:44;12.80;67.00
2439;DHT22;14509;47.992;7.848;2023-12-22T11:40:47;12.90;67.10
2439;DHT22;14509;47.992;7.848;2023-12-22T11:42:52;13.00;66.40
2439;DHT22;14509;47.992;7.848;2023-12-22T11:44:55;13.00;66.50
2439;DHT22;14509;47.992;7.848;2023-12-22T11:47:04;12.90;66.50
2439;DHT22;14509;47.992;7.848;2023-12-22T11:49:06;12.90;67.00
2439;DHT22;14509;47.992;7.848;2023-12-22T11:51:12;13.70;67.60
2439;DHT22;14509;47.992;7.848;2023-12-22T11:53:20;13.80;67.80
2439;DHT22;14509;47.992;7.848;2023-12-22T11:58:34;13.00;66.70
2439;DHT22;14509;47.992;7.848;2023-12-22T12:00:40;12.90;66.90
2439;DHT22;14509;47.992;7.848;2023-12-22T12:02:42;13.30;68.00
2439;DHT22;14509;47.992;7.848;2023-12-22T12:04:47;13.90;69.20
2439;DHT22;14509;47.992;7.848;2023-12-22T12:06:48;13.10;67.70
2439;DHT22;14509;47.992;7.848;2023-12-22T12:08:51;13.40;67.00
2439;DHT22;14509;47.992;7.848;2023-12-22T12:10:52;13.10;67.20
2439;DHT22;14509;47.992;7.848;2023-12-22T12:13:06;14.20;67.90
2439;DHT22;14509;47.992;7.848;2023-12-22T12:15:10;13.20;67.30
2439;DHT22;14509;47.992;7.848;2023-12-22T12:17:15;13.20;67.00
2439;DHT22;14509;47.992;7.848;2023-12-22T12:19:19;13.20;66.70
2439;DHT22;14509;47.992;7.848;2023-12-22T12:21:21;13.30;67.10
2439;DHT22;14509;47.992;7.848;2023-12-22T12:23:24;13.50;67.30
2439;DHT22;14509;47.992;7.848;2023-12-22T12:25:28;13.30;66.90
2439;DHT22;14509;47.992;7.848;2023-12-22T12:27:31;13.50;67.70
2439;DHT22;14509;47.992;7.848;2023-12-22T12:29:36;13.30;66.50
2439;DHT22;14509;47.992;7.848;2023-12-22T12:31:41;13.30;67.40
2439;DHT22;14509;47.992;7.848;2023-12-22T12:33:44;13.60;66.60
2439;DHT22;14509;47.992;7.848;2023-12-22T12:35:47;14.10;66.40
2439;DHT22;14509;47.992;7.848;2023-12-22T12:37:49;14.90;68.00
2439;DHT22;14509;47.992;7.848;2023-12-22T12:39:57;13.80;67.00
2439;DHT22;14509;47.992;7.848;2023-12-22T12:42:03;14.60;66.60
2439;DHT22;14509;47.992;7.848;2023-12-22T12:44:08;13.80;65.60
2439;DHT22;14509;47.992;7.848;2023-12-22T12:46:12;13.80;65.60
2439;DHT22;14509;47.992;7.848;2023-12-22T12:48:16;15.10;66.70
2439;DHT22;14509;47.992;7.848;2023-12-22T12:50:21;13.80;65.70
2439;DHT22;14509;47.992;7.848;2023-12-22T12:52:24;12.40;64.10
2439;DHT22;14509;47.992;7.848;2023-12-22T12:54:27;13.70;66.10
2439;DHT22;14509;47.992;7.848;2023-12-22T12:56:29;15.40;67.80
2439;DHT22;14509;47.992;7.848;2023-12-22T12:58:30;14.40;66.30
2439;DHT22;14509;47.992;7.848;2023-12-22T13:00:33;13.90;65.20
2439;DHT22;14509;47.992;7.848;2023-12-22T13:02:38;13.90;64.80
2439;DHT22;14509;47.992;7.848;2023-12-22T13:04:41;14.40;66.00
2439;DHT22;14509;47.992;7.848;2023-12-22T13:06:44;13.90;66.70
2439;DHT22;14509;47.992;7.848;2023-12-22T13:08:50;13.90;65.00
2439;DHT22;14509;47.992;7.848;2023-12-22T13:11:00;14.70;67.40
2439;DHT22;14509;47.992;7.848;2023-12-22T13:13:04;14.40;66.20
2439;DHT22;14509;47.992;7.848;2023-12-22T13:15:07;13.80;66.30
2439;DHT22;14509;47.992;7.848;2023-12-22T13:17:11;13.90;65.90
2439;DHT22;14509;47.992;7.848;2023-12-22T13:19:14;14.10;65.70
2439;DHT22;14509;47.992;7.848;2023-12-22T13:21:16;13.70;65.90
2439;DHT22;14509;47.992;7.848;2023-12-22T13:23:18;13.50;66.60
2439;DHT22;14509;47.992;7.848;2023-12-22T13:25:21;13.60;67.30
2439;DHT22;14509;47.992;7.848;2023-12-22T13:27:24;13.60;66.70
2439;DHT22;14509;47.992;7.848;2023-12-22T13:29:26;14.10;67.20
2439;DHT22;14509;47.992;7.848;2023-12-22T13:31:27;14.30;67.10
2439;DHT22;14509;47.992;7.848;2023-12-22T13:33:33;14.60;68.00
2439;DHT22;14509;47.992;7.848;2023-12-22T13:35:37;13.70;66.60
2439;DHT22;14509;47.992;7.848;2023-12-22T13:37:46;13.60;65.80
2439;DHT22;14509;47.992;7.848;2023-12-22T13:39:48;13.60;67.40
2439;DHT22;14509;47.992;7.848;2023-12-22T13:41:51;13.60;67.40
2439;DHT22;14509;47.992;7.848;2023-12-22T13:46:12;12.60;65.10
2439;DHT22;14509;47.992;7.848;2023-12-22T13:48:17;14.40;67.60
2439;DHT22;14509;47.992;7.848;2023-12-22T13:50:20;13.60;67.10
2439;DHT22;14509;47.992;7.848;2023-12-22T13:52:29;14.40;68.50
2439;DHT22;14509;47.992;7.848;2023-12-22T13:54:33;13.70;67.30
2439;DHT22;14509;47.992;7.848;2023-12-22T13:56:35;13.90;67.30
2439;DHT22;14509;47.992;7.848;2023-12-22T13:58:43;13.90;67.40
2439;DHT22;14509;47.992;7.848;2023-12-22T14:00:46;13.60;67.20
2439;DHT22;14509;47.992;7.848;2023-12-22T14:02:49;14.60;68.50
2439;DHT22;14509;47.992;7.848;2023-12-22T14:04:52;13.60;67.50
2439;DHT22;14509;47.992;7.848;2023-12-22T14:06:54;13.70;67.70
2439;DHT22;14509;47.992;7.848;2023-12-22T14:08:57;13.80;67.60
2439;DHT22;14509;47.992;7.848;2023-12-22T14:11:00;13.80;66.70
2439;DHT22;14509;47.992;7.848;2023-12-22T14:13:02;15.30;68.70
2439;DHT22;14509;47.992;7.848;2023-12-22T14:15:03;13.80;66.70
2439;DHT22;14509;47.992;7.848;2023-12-22T14:17:07;13.80;67.30
2439;DHT22;14509;47.992;7.848;2023-12-22T14:19:09;13.40;66.70
2439;DHT22;14509;47.992;7.848;2023-12-22T14:21:10;13.90;67.70
2439;DHT22;14509;47.992;7.848;2023-12-22T14:23:12;13.80;66.90
2439;DHT22;14509;47.992;7.848;2023-12-22T14:25:18;13.80;66.90
2439;DHT22;14509;47.992;7.848;2023-12-22T14:27:22;13.60;67.00
2439;DHT22;14509;47.992;7.848;2023-12-22T14:29:24;13.80;67.70
2439;DHT22;14509;47.992;7.848;2023-12-22T14:31:27;13.90;67.20
2439;DHT22;14509;47.992;7.848;2023-12-22T14:33:31;13.90;67.20
2439;DHT22;14509;47.992;7.848;2023-12-22T14:35:33;14.00;67.00
2439;DHT22;14509;47.992;7.848;2023-12-22T14:37:34;14.10;67.10
2439;DHT22;14509;47.992;7.848;2023-12-22T14:39:37;13.90;66.80
2439;DHT22;14509;47.992;7.848;2023-12-22T14:41:41;14.50;68.10
2439;DHT22;14509;47.992;7.848;2023-12-22T14:43:43;13.80;67.30
2439;DHT22;14509;47.992;7.848;2023-12-22T14:45:45;13.80;67.50
2439;DHT22;14509;47.992;7.848;2023-12-22T14:47:47;13.80;67.80
2439;DHT22;14509;47.992;7.848;2023-12-22T14:49:49;13.80;67.00
2439;DHT22;14509;47.992;7.848;2023-12-22T14:51:51;13.30;66.60
2439;DHT22;14509;47.992;7.848;2023-12-22T14:53:54;13.70;68.10
2439;DHT22;14509;47.992;7.848;2023-12-22T14:55:56;13.70;67.90
2439;DHT22;14509;47.992;7.848;2023-12-22T14:58:01;13.80;68.00
2439;DHT22;14509;47.992;7.848;2023-12-22T15:00:05;14.70;68.30